createdAt,value
2022-08-12T00:00:09.058Z,19.50
2022-08-12T00:02:54.653Z,19.50
2022-08-12T00:06:04.499Z,19.60
2022-08-12T00:08:50.199Z,19.60
2022-08-12T00:11:35.887Z,19.60
2022-08-12T00:14:21.315Z,19.60
2022-08-12T00:17:07.287Z,19.60
2022-08-12T00:19:52.724Z,19.60
2022-08-12T00:22:39.343Z,19.70
2022-08-12T00:26:01.367Z,19.60
2022-08-12T00:28:31.193Z,19.60
2022-08-12T00:31:16.957Z,19.60
2022-08-12T00:34:02.377Z,19.60
2022-08-12T00:36:50.135Z,19.50
2022-08-12T00:39:36.556Z,19.50
2022-08-12T00:42:10.617Z,19.50
2022-08-12T00:44:43.413Z,19.50
2022-08-12T00:47:25.712Z,19.40
2022-08-12T00:49:54.646Z,19.40
2022-08-12T00:52:22.235Z,19.30
2022-08-12T00:54:57.730Z,19.20
2022-08-12T00:57:30.786Z,19.30
2022-08-12T01:00:05.100Z,19.10
2022-08-12T01:02:34.550Z,19.00
2022-08-12T01:05:30.905Z,18.90
2022-08-12T01:08:16.806Z,18.80
2022-08-12T01:11:04.674Z,18.60
2022-08-12T01:13:33.659Z,18.50
2022-08-12T01:16:05.104Z,18.50
2022-08-12T01:18:34.230Z,18.50
2022-08-12T01:21:16.630Z,18.40
2022-08-12T01:24:27.969Z,18.40
2022-08-12T01:26:54.954Z,18.40
2022-08-12T01:29:33.222Z,18.40
2022-08-12T01:32:05.399Z,18.40
2022-08-12T01:34:37.551Z,18.50
2022-08-12T01:37:07.625Z,18.50
2022-08-12T01:40:33.648Z,18.50
2022-08-12T01:42:47.945Z,18.60
2022-08-12T01:45:17.558Z,18.60
2022-08-12T01:48:09.505Z,18.60
2022-08-12T01:50:55.071Z,18.60
2022-08-12T01:53:50.184Z,18.40
2022-08-12T01:56:21.976Z,18.20
2022-08-12T01:59:09.192Z,18.20
2022-08-12T02:01:40.279Z,18.10
2022-08-12T02:04:39.691Z,18.00
2022-08-12T02:07:43.139Z,18.00
2022-08-12T02:10:50.843Z,17.90
2022-08-12T02:13:48.916Z,17.90
2022-08-12T02:16:41.504Z,17.80
2022-08-12T02:19:22.939Z,17.70
2022-08-12T02:22:15.362Z,17.60
2022-08-12T02:24:45.688Z,17.60
2022-08-12T02:27:15.273Z,17.50
2022-08-12T02:29:42.233Z,17.60
2022-08-12T02:32:09.982Z,17.50
2022-08-12T02:34:37.880Z,17.60
2022-08-12T02:37:05.148Z,17.60
2022-08-12T02:39:34.290Z,17.50
2022-08-12T02:42:04.737Z,17.60
2022-08-12T02:44:37.733Z,17.50
2022-08-12T02:47:07.270Z,17.50
2022-08-12T02:49:51.483Z,17.50
2022-08-12T02:52:19.381Z,17.40
2022-08-12T02:54:51.390Z,17.40
2022-08-12T02:57:20.721Z,17.30
2022-08-12T02:59:49.622Z,17.30
2022-08-12T03:02:21.671Z,17.20
2022-08-12T03:04:54.222Z,17.30
2022-08-12T03:07:39.079Z,17.30
2022-08-12T03:10:17.606Z,17.20
2022-08-12T03:12:49.383Z,17.20
2022-08-12T03:15:22.393Z,17.10
2022-08-12T03:18:25.601Z,17.10
2022-08-12T03:20:54.700Z,17.00
2022-08-12T03:23:30.221Z,17.10
2022-08-12T03:26:01.660Z,17.10
2022-08-12T03:28:51.997Z,17.20
2022-08-12T03:31:21.611Z,17.10
2022-08-12T03:34:02.182Z,17.20
2022-08-12T03:36:35.201Z,17.20
2022-08-12T03:39:37.014Z,17.20
2022-08-12T03:42:34.584Z,17.10
2022-08-12T03:45:31.402Z,16.90
2022-08-12T03:48:33.435Z,16.80
2022-08-12T03:51:20.486Z,16.70
2022-08-12T03:54:06.615Z,16.70
2022-08-12T03:56:52.631Z,16.70
2022-08-12T03:59:38.786Z,16.70
2022-08-12T04:02:05.831Z,16.60
2022-08-12T04:04:35.077Z,16.60
2022-08-12T04:07:04.788Z,16.60
2022-08-12T04:09:31.938Z,16.60
2022-08-12T04:12:17.054Z,16.50
2022-08-12T04:14:44.210Z,16.50
2022-08-12T04:17:12.283Z,16.40
2022-08-12T04:19:39.839Z,16.40
2022-08-12T04:22:06.606Z,16.30
2022-08-12T04:24:36.018Z,16.20
2022-08-12T04:27:08.617Z,16.20
2022-08-12T04:30:29.821Z,16.30
2022-08-12T04:32:26.971Z,16.40
2022-08-12T04:34:54.126Z,16.50
2022-08-12T04:37:21.205Z,16.60
2022-08-12T04:39:48.865Z,16.60
2022-08-12T04:42:16.252Z,16.50
2022-08-12T04:44:44.453Z,16.40
2022-08-12T04:47:16.566Z,16.40
2022-08-12T04:49:45.019Z,16.40
2022-08-12T04:52:12.122Z,16.50
2022-08-12T04:54:38.946Z,16.50
2022-08-12T04:57:09.797Z,16.60
2022-08-12T04:59:47.591Z,16.60
2022-08-12T05:02:21.018Z,16.60
2022-08-12T05:04:50.744Z,16.70
2022-08-12T05:07:17.738Z,16.70
2022-08-12T05:10:00.504Z,16.80
2022-08-12T05:12:36.608Z,16.80
2022-08-12T05:15:19.868Z,16.80
2022-08-12T05:17:52.804Z,16.80
2022-08-12T05:20:21.970Z,16.80
2022-08-12T05:22:56.981Z,16.80
2022-08-12T05:25:25.068Z,16.80
2022-08-12T05:27:55.444Z,16.90
2022-08-12T05:30:25.654Z,16.90
2022-08-12T05:32:55.558Z,16.90
2022-08-12T05:35:24.298Z,16.90
2022-08-12T05:38:14.218Z,17.00
2022-08-12T05:40:41.920Z,17.10
2022-08-12T05:43:08.957Z,17.30
2022-08-12T05:45:35.732Z,17.40
2022-08-12T05:48:02.781Z,17.50
2022-08-12T05:50:29.611Z,17.70
2022-08-12T05:52:56.422Z,18.00
2022-08-12T05:55:26.975Z,18.20
2022-08-12T05:57:57.297Z,18.40
2022-08-12T06:00:25.727Z,18.50
2022-08-12T06:03:01.288Z,18.80
2022-08-12T06:05:43.128Z,19.00
2022-08-12T06:08:21.197Z,19.30
2022-08-12T06:10:50.264Z,19.80
2022-08-12T06:13:28.057Z,20.10
2022-08-12T06:16:09.919Z,20.40
2022-08-12T06:18:40.033Z,20.60
2022-08-12T06:21:11.507Z,20.90
2022-08-12T06:23:42.462Z,21.20
2022-08-12T06:26:12.828Z,21.50
2022-08-12T06:28:41.046Z,21.80
2022-08-12T06:31:25.408Z,22.20
2022-08-12T06:33:57.555Z,22.40
2022-08-12T06:36:30.168Z,22.80
2022-08-12T06:39:00.841Z,23.00
2022-08-12T06:42:02.426Z,23.10
2022-08-12T06:44:33.047Z,23.10
2022-08-12T06:47:00.168Z,23.10
2022-08-12T06:49:28.442Z,23.20
2022-08-12T06:51:56.693Z,23.50
2022-08-12T06:54:31.240Z,23.80
2022-08-12T06:57:05.322Z,23.70
2022-08-12T06:59:50.385Z,23.80
2022-08-12T07:02:18.526Z,23.70
2022-08-12T07:04:47.457Z,23.80
2022-08-12T07:07:14.573Z,24.10
2022-08-12T07:10:01.328Z,24.30
2022-08-12T07:12:30.230Z,24.30
2022-08-12T07:14:58.261Z,24.40
2022-08-12T07:17:37.243Z,24.90
2022-08-12T07:20:13.721Z,25.20
2022-08-12T07:22:57.455Z,25.00
2022-08-12T07:25:40.335Z,24.90
2022-08-12T07:28:16.585Z,25.10
2022-08-12T07:30:45.375Z,25.30
2022-08-12T07:33:13.480Z,25.50
2022-08-12T07:35:50.429Z,25.30
2022-08-12T07:38:31.517Z,25.70
2022-08-12T07:41:07.037Z,25.90
2022-08-12T07:43:39.236Z,25.60
2022-08-12T07:46:08.437Z,25.60
2022-08-12T07:48:46.973Z,25.50
2022-08-12T07:51:24.784Z,25.90
2022-08-12T07:54:00.749Z,25.70
2022-08-12T07:56:31.210Z,25.40
2022-08-12T07:58:59.401Z,25.50
2022-08-12T08:01:26.747Z,25.90
2022-08-12T08:04:18.514Z,25.60
2022-08-12T08:06:46.320Z,25.60
2022-08-12T08:09:15.243Z,26.00
2022-08-12T08:12:00.762Z,25.90
2022-08-12T08:14:31.778Z,25.70
2022-08-12T08:17:00.374Z,25.90
2022-08-12T08:19:29.164Z,25.90
2022-08-12T08:21:58.786Z,25.90
2022-08-12T08:24:28.009Z,25.50
2022-08-12T08:26:56.838Z,25.80
2022-08-12T08:29:25.036Z,26.00
2022-08-12T08:31:59.985Z,25.60
2022-08-12T08:34:33.926Z,25.60
2022-08-12T08:37:17.040Z,25.70
2022-08-12T08:39:44.503Z,25.80
2022-08-12T08:42:30.021Z,26.10
2022-08-12T08:44:58.881Z,26.60
2022-08-12T08:47:25.844Z,26.60
2022-08-12T08:49:52.737Z,26.80
2022-08-12T08:52:39.713Z,26.80
2022-08-12T08:55:09.552Z,27.10
2022-08-12T08:57:43.622Z,26.30
2022-08-12T09:00:16.069Z,26.00
2022-08-12T09:02:49.356Z,25.60
2022-08-12T09:05:26.187Z,25.80
2022-08-12T09:08:08.904Z,26.50
2022-08-12T09:10:45.252Z,26.60
2022-08-12T09:16:20.189Z,26.50
2022-08-12T09:18:48.376Z,26.40
2022-08-12T09:21:20.084Z,26.30
2022-08-12T09:24:00.012Z,26.40
2022-08-12T09:26:38.167Z,26.50
2022-08-12T09:30:09.850Z,26.80
2022-08-12T09:32:29.543Z,26.70
2022-08-12T09:34:56.760Z,26.60
2022-08-12T09:37:26.777Z,27.30
2022-08-12T09:40:02.394Z,27.60
2022-08-12T09:43:15.434Z,27.60
2022-08-12T09:46:06.455Z,27.70
2022-08-12T09:48:35.657Z,27.50
2022-08-12T09:51:12.970Z,27.20
2022-08-12T09:54:06.037Z,26.70
2022-08-12T09:57:00.305Z,26.60
2022-08-12T10:00:16.499Z,26.70
2022-08-12T10:02:45.070Z,26.90
2022-08-12T10:04:59.699Z,27.20
2022-08-12T10:07:30.981Z,27.60
2022-08-12T10:10:24.236Z,27.50
2022-08-12T10:13:14.067Z,27.50
2022-08-12T10:16:01.851Z,26.90
2022-08-12T10:18:32.795Z,26.80
2022-08-12T10:21:06.369Z,26.70
2022-08-12T10:23:40.660Z,26.80
2022-08-12T10:26:37.378Z,27.30
2022-08-12T10:30:03.580Z,27.00
2022-08-12T10:32:20.949Z,27.00
2022-08-12T10:34:53.409Z,27.00
2022-08-12T10:38:37.407Z,27.00
2022-08-12T10:40:15.718Z,27.20
2022-08-12T10:43:05.653Z,27.30
2022-08-12T10:45:32.920Z,27.60
2022-08-12T10:48:19.521Z,26.80
2022-08-12T10:51:01.603Z,26.90
2022-08-12T10:53:46.022Z,26.60
2022-08-12T10:56:17.581Z,26.80
2022-08-12T10:58:47.164Z,26.80
2022-08-12T11:01:50.212Z,26.40
2022-08-12T11:04:27.479Z,25.70
2022-08-12T11:07:09.387Z,25.40
2022-08-12T11:09:51.349Z,25.50
2022-08-12T11:12:55.548Z,25.50
2022-08-12T11:15:19.273Z,25.50
2022-08-12T11:17:53.481Z,25.20
2022-08-12T11:20:24.279Z,25.30
2022-08-12T11:23:03.883Z,25.30
2022-08-12T11:25:56.413Z,25.40
2022-08-12T11:28:33.378Z,25.30
2022-08-12T11:31:02.868Z,25.10
2022-08-12T11:34:05.425Z,25.00
2022-08-12T11:36:17.509Z,24.80
2022-08-12T11:38:50.792Z,24.90
2022-08-12T11:41:31.527Z,24.90
2022-08-12T11:44:07.228Z,24.90
2022-08-12T11:46:54.910Z,24.90
2022-08-12T11:49:32.487Z,24.80
2022-08-12T11:52:01.640Z,24.90
2022-08-12T11:54:29.794Z,24.90
2022-08-12T11:57:00.337Z,24.90
2022-08-12T12:02:02.879Z,24.90
2022-08-12T12:02:20.114Z,25.00
2022-08-12T12:04:52.807Z,24.90
2022-08-12T12:08:36.391Z,24.90
2022-08-12T12:10:14.726Z,25.00
2022-08-12T12:12:49.683Z,25.20
2022-08-12T12:15:25.379Z,25.10
2022-08-12T12:18:06.857Z,25.10
2022-08-12T12:20:35.153Z,24.90
2022-08-12T12:23:03.168Z,25.00
2022-08-12T12:25:59.683Z,25.00
2022-08-12T12:28:36.569Z,25.20
2022-08-12T12:31:05.108Z,25.30
2022-08-12T12:33:57.324Z,25.20
2022-08-12T12:36:30.106Z,25.10
2022-08-12T12:38:58.180Z,25.00
2022-08-12T12:42:44.239Z,25.10
2022-08-12T12:44:25.740Z,25.10
2022-08-12T12:46:57.311Z,25.00
2022-08-12T12:49:26.232Z,25.00
2022-08-12T12:52:18.237Z,25.00
2022-08-12T12:54:52.670Z,25.20
2022-08-12T12:57:21.552Z,25.30
2022-08-12T13:00:14.827Z,25.30
2022-08-12T13:02:46.252Z,25.20
2022-08-12T13:05:27.689Z,25.30
2022-08-12T13:08:01.044Z,25.30
2022-08-12T13:10:36.517Z,25.30
2022-08-12T13:14:07.255Z,25.30
2022-08-12T13:15:51.256Z,25.20
2022-08-12T13:18:18.459Z,25.30
2022-08-12T13:20:46.171Z,25.50
2022-08-12T13:23:36.976Z,25.40
2022-08-12T13:26:03.992Z,25.50
2022-08-12T13:28:31.771Z,25.40
2022-08-12T13:31:02.670Z,25.50
2022-08-12T13:34:33.656Z,25.60
2022-08-12T13:36:20.365Z,25.70
2022-08-12T13:38:52.080Z,25.80
2022-08-12T13:41:33.143Z,25.70
2022-08-12T13:44:01.733Z,25.70
2022-08-12T13:46:28.568Z,25.80
2022-08-12T13:48:56.509Z,25.80
2022-08-12T13:51:24.748Z,25.60
2022-08-12T13:53:57.777Z,25.80
2022-08-12T13:56:29.895Z,25.70
2022-08-12T13:59:05.629Z,25.80
2022-08-12T14:01:35.803Z,25.90
2022-08-12T14:04:11.892Z,25.90
2022-08-12T14:06:40.046Z,26.00
2022-08-12T14:09:15.671Z,25.90
2022-08-12T14:11:51.269Z,25.90
2022-08-12T14:14:26.442Z,26.00
2022-08-12T14:16:53.714Z,25.90
2022-08-12T14:19:24.375Z,25.90
2022-08-12T14:22:01.291Z,25.90
2022-08-12T14:24:40.263Z,26.00
2022-08-12T14:27:10.369Z,26.10
2022-08-12T14:30:04.894Z,26.10
2022-08-12T14:32:34.588Z,26.10
2022-08-12T14:35:03.981Z,26.20
2022-08-12T14:37:55.612Z,26.20
2022-08-12T14:40:18.626Z,26.20
2022-08-12T14:42:47.049Z,26.10
2022-08-12T14:45:14.085Z,26.00
2022-08-12T14:47:58.775Z,26.00
2022-08-12T14:50:37.190Z,26.10
2022-08-12T14:55:13.921Z,26.10
2022-08-12T14:59:20.363Z,26.40
2022-08-12T15:01:50.779Z,26.30
2022-08-12T15:04:22.551Z,26.30
2022-08-12T15:06:52.639Z,26.10
2022-08-12T15:09:29.074Z,25.90
2022-08-12T15:12:03.522Z,25.90
2022-08-12T15:14:31.645Z,25.90
2022-08-12T15:17:00.045Z,25.80
2022-08-12T15:20:27.833Z,25.70
2022-08-12T15:22:36.826Z,25.60
2022-08-12T15:25:07.372Z,25.60
2022-08-12T15:28:10.986Z,25.70
2022-08-12T15:30:30.434Z,25.80
2022-08-12T15:32:57.671Z,25.90
2022-08-12T15:35:27.569Z,25.80
2022-08-12T15:38:18.626Z,25.70
2022-08-12T15:40:52.506Z,25.50
2022-08-12T15:43:51.417Z,25.40
2022-08-12T15:46:15.554Z,25.40
2022-08-12T15:48:47.018Z,25.40
2022-08-12T15:51:59.714Z,25.30
2022-08-12T15:54:34.089Z,25.20
2022-08-12T15:57:10.800Z,25.10
2022-08-12T16:00:00.758Z,25.10
2022-08-12T16:02:41.035Z,25.10
2022-08-12T16:06:12.663Z,25.20
2022-08-12T16:08:05.895Z,25.30
2022-08-12T16:10:33.376Z,25.40
2022-08-12T16:13:11.443Z,25.50
2022-08-12T16:15:42.258Z,25.60
2022-08-12T16:18:20.577Z,25.60
2022-08-12T16:20:47.635Z,25.50
2022-08-12T16:23:36.423Z,25.50
2022-08-12T16:26:15.199Z,25.50
2022-08-12T16:28:47.579Z,25.20
2022-08-12T16:31:23.098Z,25.00
2022-08-12T16:33:58.841Z,25.00
2022-08-12T16:36:28.731Z,24.90
2022-08-12T16:38:55.672Z,24.80
2022-08-12T16:41:23.524Z,24.80
2022-08-12T16:43:53.010Z,24.80
2022-08-12T16:46:33.433Z,24.80
2022-08-12T16:49:09.291Z,24.70
2022-08-12T16:51:46.480Z,24.60
2022-08-12T16:54:16.040Z,24.50
2022-08-12T16:56:55.526Z,24.40
2022-08-12T16:59:52.904Z,24.40
2022-08-12T17:02:31.240Z,24.30
2022-08-12T17:05:02.971Z,24.20
2022-08-12T17:07:36.311Z,24.20
2022-08-12T17:10:12.964Z,24.10
2022-08-12T17:12:40.191Z,24.00
2022-08-12T17:15:25.692Z,24.00
2022-08-12T17:18:15.368Z,24.00
2022-08-12T17:20:49.245Z,24.10
2022-08-12T17:23:19.274Z,23.90
2022-08-12T17:25:52.956Z,23.90
2022-08-12T17:28:24.084Z,23.90
2022-08-12T17:30:56.429Z,23.90
2022-08-12T17:33:27.790Z,23.80
2022-08-12T17:36:01.361Z,23.80
2022-08-12T17:38:29.457Z,23.70
2022-08-12T17:40:57.579Z,23.70
2022-08-12T17:43:55.706Z,23.70
2022-08-12T17:46:23.605Z,23.70
2022-08-12T17:48:55.039Z,23.70
2022-08-12T17:51:24.541Z,23.70
2022-08-12T17:54:06.116Z,23.70
2022-08-12T17:56:39.926Z,23.70
2022-08-12T17:59:08.965Z,23.70
2022-08-12T18:01:36.919Z,23.50
2022-08-12T18:04:20.788Z,23.50
2022-08-12T18:06:50.569Z,23.40
2022-08-12T18:09:18.191Z,23.40
2022-08-12T18:12:08.287Z,23.40
2022-08-12T18:14:38.003Z,23.30
2022-08-12T18:17:08.557Z,23.30
2022-08-12T18:20:06.354Z,23.30
2022-08-12T18:22:30.584Z,23.20
2022-08-12T18:25:05.022Z,23.20
2022-08-12T18:27:44.872Z,23.20
2022-08-12T18:30:20.254Z,23.10
2022-08-12T18:32:54.225Z,23.10
2022-08-12T18:35:52.388Z,23.00
2022-08-12T18:38:17.612Z,23.00
2022-08-12T18:41:06.135Z,22.90
2022-08-12T18:43:38.881Z,22.80
2022-08-12T18:46:29.911Z,22.70
2022-08-12T18:48:57.583Z,22.60
2022-08-12T18:51:55.168Z,22.60
2022-08-12T18:54:35.018Z,22.50
2022-08-12T18:57:07.113Z,22.40
2022-08-12T19:00:02.057Z,22.30
2022-08-12T19:02:40.719Z,22.20
2022-08-12T19:05:10.726Z,22.20
2022-08-12T19:07:59.876Z,22.20
2022-08-12T19:10:29.526Z,22.20
2022-08-12T19:13:23.373Z,22.10
2022-08-12T19:15:53.641Z,22.20
2022-08-12T19:18:22.300Z,22.20
2022-08-12T19:20:50.552Z,22.20
2022-08-12T19:23:21.234Z,22.00
2022-08-12T19:26:01.477Z,22.00
2022-08-12T19:28:35.452Z,21.90
2022-08-12T19:31:55.489Z,21.90
2022-08-12T19:37:26.672Z,21.80
2022-08-12T19:40:10.189Z,21.70
2022-08-12T19:43:00.703Z,21.70
2022-08-12T19:45:43.689Z,21.60
2022-08-12T19:48:18.507Z,21.60
2022-08-12T19:50:50.497Z,21.60
2022-08-12T19:53:23.853Z,21.50
2022-08-12T19:55:55.998Z,21.50
2022-08-12T19:58:24.697Z,21.50
2022-08-12T20:00:53.794Z,21.30
2022-08-12T20:03:39.592Z,21.30
2022-08-12T20:06:18.273Z,21.30
2022-08-12T20:08:56.339Z,21.30
2022-08-12T20:12:12.014Z,21.30
2022-08-12T20:14:18.607Z,21.30
2022-08-12T20:16:51.102Z,21.20
2022-08-12T20:19:20.483Z,21.20
2022-08-12T20:21:47.323Z,21.20
2022-08-12T20:24:14.513Z,21.20
2022-08-12T20:26:42.567Z,21.20
2022-08-12T20:29:11.654Z,21.20
2022-08-12T20:31:43.136Z,21.20
2022-08-12T20:34:12.484Z,21.20
2022-08-12T20:36:44.783Z,21.10
2022-08-12T20:39:37.100Z,21.10
2022-08-12T20:42:07.325Z,21.10
2022-08-12T20:44:39.664Z,21.10
2022-08-12T20:47:19.376Z,21.10
2022-08-12T20:49:54.948Z,21.10
2022-08-12T20:52:29.041Z,21.10
2022-08-12T20:54:58.040Z,21.00
2022-08-12T20:57:38.363Z,20.90
2022-08-12T21:00:16.723Z,20.90
2022-08-12T21:02:49.844Z,20.90
2022-08-12T21:06:12.543Z,20.80
2022-08-12T21:08:27.248Z,20.60
2022-08-12T21:10:54.594Z,20.50
2022-08-12T21:13:29.530Z,20.40
2022-08-12T21:16:06.759Z,20.30
2022-08-12T21:18:38.056Z,20.20
2022-08-12T21:21:06.792Z,20.10
2022-08-12T21:23:52.305Z,20.10
2022-08-12T21:26:23.613Z,20.10
2022-08-12T21:29:01.170Z,20.00
2022-08-12T21:32:37.107Z,19.90
2022-08-12T21:34:19.554Z,19.80
2022-08-12T21:36:49.566Z,19.70
2022-08-12T21:39:26.778Z,19.70
2022-08-12T21:42:05.384Z,19.70
2022-08-12T21:45:47.732Z,19.70
2022-08-12T21:47:23.986Z,19.70
2022-08-12T21:50:06.626Z,19.70
2022-08-12T21:52:40.792Z,19.70
2022-08-12T21:55:18.722Z,19.60
2022-08-12T21:57:50.532Z,19.60
2022-08-12T22:00:19.802Z,19.60
2022-08-12T22:03:05.515Z,19.60
2022-08-12T22:05:53.507Z,19.60
2022-08-12T22:08:22.509Z,19.60
2022-08-12T22:10:56.341Z,19.60
2022-08-12T22:14:04.121Z,19.50
2022-08-12T22:16:14.357Z,19.50
2022-08-12T22:18:44.388Z,19.30
2022-08-12T22:21:22.281Z,19.20
2022-08-12T22:24:05.203Z,19.20
2022-08-12T22:26:37.874Z,19.20
2022-08-12T22:29:27.392Z,19.30
2022-08-12T22:31:55.811Z,19.20
2022-08-12T22:34:29.268Z,19.30
2022-08-12T22:36:57.555Z,19.30
2022-08-12T22:39:26.550Z,19.40
2022-08-12T22:42:12.053Z,19.40
2022-08-12T22:44:57.614Z,19.40
2022-08-12T22:47:53.349Z,19.40
2022-08-12T22:50:28.939Z,19.40
2022-08-12T22:53:14.975Z,19.40
2022-08-12T22:56:05.863Z,19.30
2022-08-12T22:58:34.089Z,19.30
2022-08-12T23:01:02.187Z,19.30
2022-08-12T23:03:47.722Z,19.30
2022-08-12T23:06:19.310Z,19.10
2022-08-12T23:08:46.622Z,19.00
2022-08-12T23:11:14.933Z,18.90
2022-08-12T23:13:56.097Z,18.90
2022-08-12T23:16:31.102Z,18.80
2022-08-12T23:19:09.467Z,18.70
2022-08-12T23:22:04.146Z,18.80
2022-08-12T23:24:37.026Z,18.80
2022-08-12T23:27:23.846Z,18.70
2022-08-12T23:30:18.366Z,18.70
2022-08-12T23:32:46.462Z,18.60
2022-08-12T23:35:22.408Z,18.50
2022-08-12T23:37:53.525Z,18.50
2022-08-12T23:40:22.401Z,18.50
2022-08-12T23:42:52.020Z,18.40
2022-08-12T23:45:31.781Z,18.40
2022-08-12T23:48:01.819Z,18.40
2022-08-12T23:50:34.165Z,18.40
2022-08-12T23:53:05.298Z,18.40
2022-08-12T23:55:35.931Z,18.40
2022-08-12T23:58:21.341Z,18.50
